Time;durP1;ratioP1;P1;durP2;ratioP2;P2;SDS_P1;SDS_P2;PMS_P1;PMS_P2;Temp;Humidity;BMP_temperature;BMP_pressure;BME280_temperature;BME280_humidity;BME280_pressure;Samples;Min_cycle;Max_cycle;Signal;HPM_P1;HPM_P2
2021/11/15 00:00:44;;;;;;;28.07;15.43;;;;;;;10.40;68.06;97104.25;5093692;28;20480;-67
2021/11/15 00:03:15;;;;;;;27.10;14.67;;;;;;;10.28;68.72;97093.16;5092189;28;20950;-67
2021/11/15 00:05:42;;;;;;;24.40;14.93;;;;;;;10.53;67.84;97088.97;5089897;28;20467;-67
2021/11/15 00:08:07;;;;;;;28.70;16.47;;;;;;;10.43;68.25;97088.25;5093197;28;20469;-66
2021/11/15 00:10:33;;;;;;;31.30;15.80;;;;;;;10.51;67.87;97084.84;5093916;28;20515;-66
2021/11/15 00:12:58;;;;;;;29.27;15.87;;;;;;;10.43;67.99;97083.00;5078047;28;20253;-67
2021/11/15 00:15:28;;;;;;;28.87;16.10;;;;;;;10.36;68.03;97090.63;5088959;28;20255;-66
2021/11/15 00:17:53;;;;;;;31.23;16.03;;;;;;;10.33;68.30;97090.13;5091898;28;20185;-67
2021/11/15 00:20:19;;;;;;;28.37;16.23;;;;;;;10.12;68.56;97086.88;5099306;28;20431;-67
2021/11/15 00:22:44;;;;;;;25.27;15.10;;;;;;;10.48;68.08;97080.72;5098826;28;20240;-66
2021/11/15 00:25:11;;;;;;;28.93;16.87;;;;;;;10.50;67.82;97076.16;5108836;28;20208;-67
2021/11/15 00:27:37;;;;;;;33.00;15.63;;;;;;;10.49;67.61;97092.03;5091146;28;20667;-67
2021/11/15 00:30:05;;;;;;;33.03;16.40;;;;;;;10.22;68.82;97081.50;5092993;28;20491;-67
2021/11/15 00:32:30;;;;;;;26.93;16.10;;;;;;;10.41;68.66;97088.38;5093125;28;20440;-66
2021/11/15 00:34:56;;;;;;;30.40;16.77;;;;;;;10.29;68.38;97093.03;5083404;28;20448;-66
2021/11/15 00:37:22;;;;;;;30.23;15.90;;;;;;;10.41;68.47;97084.94;5091924;28;20208;-66
2021/11/15 00:39:48;;;;;;;35.77;15.90;;;;;;;10.27;68.55;97079.28;5092977;28;20547;-65
2021/11/15 00:42:14;;;;;;;29.60;14.67;;;;;;;10.06;69.48;97082.22;5075108;28;20224;-67
2021/11/15 00:44:40;;;;;;;28.97;15.47;;;;;;;9.86;70.62;97092.03;5091891;28;20546;-66
2021/11/15 00:47:06;;;;;;;25.60;14.80;;;;;;;10.14;69.09;97089.31;5092954;28;20186;-66
2021/11/15 00:49:32;;;;;;;29.63;16.50;;;;;;;10.22;68.77;97092.00;5092410;28;20197;-66
2021/11/15 00:51:57;;;;;;;29.83;15.60;;;;;;;10.14;69.20;97091.94;5091080;28;20865;-65
2021/11/15 00:54:23;;;;;;;28.77;14.33;;;;;;;10.10;69.68;97085.34;5091197;28;20174;-65
2021/11/15 00:56:48;;;;;;;28.20;15.73;;;;;;;10.07;69.49;97083.06;5083231;28;20182;-66
2021/11/15 00:59:14;;;;;;;26.57;15.50;;;;;;;10.09;69.62;97089.78;5092277;28;20213;-66
2021/11/15 01:01:40;;;;;;;26.67;15.50;;;;;;;10.11;69.24;97090.47;5092196;28;20208;-68
2021/11/15 01:04:05;;;;;;;29.27;15.20;;;;;;;10.19;69.11;97081.84;5072481;28;20606;-67
2021/11/15 01:06:31;;;;;;;28.37;15.73;;;;;;;10.44;68.42;97084.66;5091469;28;20178;-67
2021/11/15 01:08:57;;;;;;;29.50;15.27;;;;;;;10.04;69.80;97086.78;5092192;28;20186;-67
2021/11/15 01:11:22;;;;;;;24.33;14.40;;;;;;;10.19;68.98;97092.31;5083854;28;20213;-66
2021/11/15 01:13:48;;;;;;;30.30;15.60;;;;;;;10.13;69.13;97095.53;5076080;28;20177;-67
2021/11/15 01:16:14;;;;;;;26.17;15.10;;;;;;;10.01;69.68;97091.50;5073802;28;20178;-65
2021/11/15 01:18:43;;;;;;;24.47;14.67;;;;;;;9.90;70.07;97103.84;5092057;28;20258;-65
2021/11/15 01:21:09;;;;;;;27.40;14.93;;;;;;;9.94;69.94;97102.59;5090789;28;20439;-67
2021/11/15 01:23:36;;;;;;;26.10;15.03;;;;;;;10.03;69.75;97097.41;5069632;28;20436;-66
2021/11/15 01:26:03;;;;;;;30.63;15.20;;;;;;;9.78;70.22;97100.63;5084685;28;20542;-67
2021/11/15 01:28:28;;;;;;;25.40;14.50;;;;;;;10.00;69.32;97098.56;5093598;28;20944;-67
2021/11/15 01:30:54;;;;;;;29.50;15.70;;;;;;;9.96;69.68;97098.00;5091665;28;20424;-67
2021/11/15 01:33:19;;;;;;;27.37;14.20;;;;;;;9.95;69.35;97088.53;5083337;28;20207;-66
2021/11/15 01:35:45;;;;;;;28.33;14.60;;;;;;;9.94;68.81;97089.50;5075317;28;20561;-67
2021/11/15 01:38:11;;;;;;;22.80;14.10;;;;;;;9.97;69.99;97097.03;5088581;28;20179;-66
2021/11/15 01:40:36;;;;;;;27.77;13.87;;;;;;;9.82;69.83;97094.13;5087219;28;20616;-67
2021/11/15 01:43:03;;;;;;;21.90;12.93;;;;;;;9.53;70.56;97092.56;5077986;28;20207;-67
2021/11/15 01:45:31;;;;;;;34.27;13.73;;;;;;;9.78;70.35;97089.34;5094858;28;20710;-67
2021/11/15 01:48:02;;;;;;;22.57;13.70;;;;;;;9.75;69.77;97087.03;5093689;28;20420;-67
2021/11/15 01:50:28;;;;;;;26.17;14.23;;;;;;;9.67;70.06;97088.63;5091561;28;20518;-68
2021/11/15 01:52:54;;;;;;;26.53;13.20;;;;;;;9.87;68.95;97082.41;5091204;28;20519;-67
2021/11/15 01:55:21;;;;;;;24.70;13.03;;;;;;;9.92;68.72;97085.38;5091944;28;20515;-68
2021/11/15 01:57:48;;;;;;;22.70;12.33;;;;;;;9.96;69.02;97082.31;5080899;28;20769;-67
2021/11/15 02:00:17;;;;;;;27.03;12.37;;;;;;;9.51;69.95;97089.25;5075053;28;20518;-66
2021/11/15 02:02:43;;;;;;;22.90;13.17;;;;;;;9.72;69.50;97080.31;5091357;28;20496;-69
2021/11/15 02:05:08;;;;;;;20.87;11.80;;;;;;;9.91;68.61;97081.09;5088175;28;20543;-67
2021/11/15 02:07:34;;;;;;;19.93;12.63;;;;;;;9.96;68.19;97082.31;5090164;28;20184;-66
2021/11/15 02:10:01;;;;;;;21.23;11.90;;;;;;;9.80;67.75;97084.81;5091238;28;20295;-67
2021/11/15 02:12:26;;;;;;;20.13;11.63;;;;;;;9.50;69.25;97097.25;5081498;28;20528;-68
2021/11/15 02:14:52;;;;;;;18.00;11.47;;;;;;;9.52;69.07;97085.66;5079007;28;20431;-66
2021/11/15 02:17:18;;;;;;;20.50;12.20;;;;;;;9.77;67.91;97088.50;5089569;28;20188;-66
2021/11/15 02:19:44;;;;;;;18.10;11.57;;;;;;;9.24;69.71;97079.66;5090918;28;20463;-67
2021/11/15 02:22:10;;;;;;;20.50;9.93;;;;;;;9.42;69.15;97076.25;5082922;28;20197;-67
2021/11/15 02:24:35;;;;;;;18.27;11.40;;;;;;;9.81;67.68;97073.38;5084109;28;20451;-68
2021/11/15 02:27:03;;;;;;;16.50;10.63;;;;;;;9.53;68.00;97065.59;5091931;28;20415;-68
2021/11/15 02:29:29;;;;;;;18.47;11.40;;;;;;;9.77;67.47;97064.97;5094796;28;20231;-67
2021/11/15 02:31:54;;;;;;;20.90;11.33;;;;;;;9.45;68.06;97063.72;5094754;28;20542;-67
2021/11/15 02:34:20;;;;;;;18.43;11.17;;;;;;;9.75;67.06;97063.47;5095359;28;20268;-67
2021/11/15 02:36:46;;;;;;;15.53;10.10;;;;;;;9.65;67.58;97064.38;5084260;28;20226;-67
2021/11/15 02:39:11;;;;;;;14.80;9.50;;;;;;;9.41;67.53;97072.00;5094392;28;20315;-67
2021/11/15 02:41:37;;;;;;;17.17;9.67;;;;;;;9.43;67.35;97065.63;5095114;28;20524;-67
2021/11/15 02:44:07;;;;;;;15.63;9.47;;;;;;;9.78;66.53;97064.00;5079171;28;20193;-66
2021/11/15 02:46:34;;;;;;;13.30;8.83;;;;;;;9.51;67.11;97067.53;5094484;28;20998;-66
2021/11/15 02:49:02;;;;;;;13.43;8.63;;;;;;;9.53;66.47;97068.19;5094106;28;20919;-68
2021/11/15 02:51:28;;;;;;;13.60;9.00;;;;;;;9.66;66.03;97068.66;5094934;28;20426;-66
2021/11/15 02:53:53;;;;;;;14.10;9.27;;;;;;;9.41;67.29;97072.00;5078777;28;20786;-67
2021/11/15 02:56:19;;;;;;;16.90;8.50;;;;;;;9.78;65.84;97078.88;5094858;28;20174;-67
2021/11/15 02:58:45;;;;;;;13.83;7.90;;;;;;;9.62;66.37;97069.91;5094225;28;20265;-67
2021/11/15 03:01:13;;;;;;;16.43;8.97;;;;;;;9.86;65.35;97065.06;5094756;28;20540;-66
2021/11/15 03:03:40;;;;;;;15.60;8.40;;;;;;;9.92;64.96;97070.50;5092887;28;20205;-66
2021/11/15 03:06:06;;;;;;;16.47;10.07;;;;;;;9.71;65.50;97072.59;5087783;28;20455;-66
2021/11/15 03:08:31;;;;;;;13.80;8.50;;;;;;;9.86;65.36;97070.28;5081757;28;20518;-67
2021/11/15 03:10:59;;;;;;;12.90;8.70;;;;;;;9.63;66.04;97066.31;5094539;28;20656;-65
2021/11/15 03:13:34;;;;;;;14.43;9.30;;;;;;;9.18;67.78;97069.81;5077310;28;20284;-66
2021/11/15 03:16:01;;;;;;;18.23;9.57;;;;;;;9.35;66.53;97070.81;5093989;28;20856;-67
2021/11/15 03:18:29;;;;;;;12.93;9.17;;;;;;;9.27;66.41;97066.31;5094180;28;20423;-66
2021/11/15 03:20:57;;;;;;;18.97;10.50;;;;;;;9.24;66.05;97063.97;5092751;28;20522;-67
2021/11/15 03:23:27;;;;;;;12.83;8.80;;;;;;;9.30;66.62;97068.63;5093711;28;20467;-65
2021/11/15 03:25:54;;;;;;;17.23;10.07;;;;;;;9.50;65.33;97063.25;5093177;28;20470;-66
2021/11/15 03:28:23;;;;;;;14.00;9.57;;;;;;;9.58;65.75;97072.97;5085088;28;20423;-67
2021/11/15 03:30:51;;;;;;;14.37;8.90;;;;;;;9.79;65.05;97070.06;5093912;28;20434;-69
2021/11/15 03:33:17;;;;;;;14.70;9.00;;;;;;;9.67;65.63;97075.53;5077711;28;20523;-67
2021/11/15 03:35:42;;;;;;;14.47;9.53;;;;;;;9.58;65.15;97068.56;5092308;28;20543;-67
2021/11/15 03:38:09;;;;;;;14.27;9.40;;;;;;;9.54;65.18;97067.22;5093322;28;20196;-66
2021/11/15 03:40:34;;;;;;;19.23;10.60;;;;;;;9.59;65.99;97074.63;5085277;28;20178;-66
2021/11/15 03:43:03;;;;;;;19.07;11.50;;;;;;;9.26;67.27;97075.13;5077064;28;20452;-66
2021/11/15 03:45:30;;;;;;;16.30;9.90;;;;;;;9.27;66.80;97070.69;5093628;28;20462;-65
2021/11/15 03:47:56;;;;;;;15.93;10.00;;;;;;;9.07;66.87;97065.59;5092728;28;20438;-67
2021/11/15 03:50:23;;;;;;;18.67;11.30;;;;;;;8.96;67.40;97061.38;5093406;28;20435;-67
2021/11/15 03:52:49;;;;;;;19.47;10.97;;;;;;;8.89;67.06;97068.97;5093562;28;20439;-67
2021/11/15 03:55:16;;;;;;;19.40;11.03;;;;;;;9.28;66.69;97073.19;5093708;28;20420;-66
2021/11/15 03:57:42;;;;;;;19.20;10.80;;;;;;;9.51;66.51;97073.56;5079488;28;20426;-66
2021/11/15 04:00:10;;;;;;;19.40;10.67;;;;;;;9.78;65.02;97076.28;5091076;28;20637;-67
2021/11/15 04:02:36;;;;;;;18.53;10.63;;;;;;;9.72;65.03;97067.22;5085162;28;20281;-66
2021/11/15 04:05:04;;;;;;;20.00;11.77;;;;;;;9.35;66.62;97066.38;5077054;28;20463;-66
2021/11/15 04:07:49;;;;;;;22.40;11.10;;;;;;;9.40;66.14;97063.31;5092916;28;20432;-65
2021/11/15 04:10:28;;;;;;;18.73;10.33;;;;;;;9.41;65.98;97069.38;5093161;28;20412;-66
2021/11/15 04:12:56;;;;;;;17.70;10.77;;;;;;;9.19;66.88;97063.63;5076879;28;21005;-65
2021/11/15 04:15:22;;;;;;;16.80;10.40;;;;;;;9.21;66.12;97061.66;5093132;28;21103;-66
2021/11/15 04:17:49;;;;;;;19.93;9.73;;;;;;;9.29;65.95;97066.97;5090599;28;20428;-66
2021/11/15 04:20:17;;;;;;;16.20;9.97;;;;;;;9.43;65.89;97064.84;5089806;28;20793;-66
2021/11/15 04:22:43;;;;;;;21.87;10.40;;;;;;;9.32;66.41;97064.09;5070636;28;21062;-66
2021/11/15 04:25:10;;;;;;;15.97;10.17;;;;;;;9.33;66.76;97070.13;5071961;28;20654;-68
2021/11/15 04:27:36;;;;;;;18.17;10.77;;;;;;;9.49;66.56;97064.22;5078124;28;20515;-67
2021/11/15 04:30:03;;;;;;;17.87;10.80;;;;;;;9.53;65.87;97068.19;5091376;28;20419;-68
2021/11/15 04:32:28;;;;;;;22.00;12.30;;;;;;;9.25;66.81;97065.63;5060193;28;20464;-66
2021/11/15 04:34:54;;;;;;;18.03;11.20;;;;;;;9.25;66.49;97067.44;5071260;28;20861;-66
2021/11/15 04:37:20;;;;;;;19.23;11.10;;;;;;;9.28;66.91;97073.19;5071565;28;20185;-67
2021/11/15 04:39:45;;;;;;;18.47;10.70;;;;;;;9.14;67.20;97063.22;5072003;28;20174;-67
2021/11/15 04:42:11;;;;;;;17.20;10.53;;;;;;;8.81;68.04;97058.44;5072274;28;20281;-66
2021/11/15 04:44:37;;;;;;;15.03;10.53;;;;;;;9.16;67.64;97061.28;5072182;28;20206;-67
2021/11/15 04:47:03;;;;;;;19.17;11.67;;;;;;;9.20;67.25;97054.78;5073534;28;20432;-67
2021/11/15 04:49:29;;;;;;;18.53;10.80;;;;;;;9.25;67.07;97056.97;5077580;28;20277;-67
2021/11/15 04:51:55;;;;;;;20.40;11.20;;;;;;;9.29;67.32;97053.91;5088402;28;20493;-66
2021/11/15 04:54:21;;;;;;;16.63;10.67;;;;;;;9.26;67.05;97062.03;5071730;28;20236;-67
2021/11/15 04:56:47;;;;;;;19.43;11.50;;;;;;;9.53;66.47;97063.78;5071797;28;20420;-68
2021/11/15 04:59:13;;;;;;;17.77;10.50;;;;;;;9.24;66.96;97056.13;5088388;28;20196;-66
2021/11/15 05:01:38;;;;;;;18.53;10.33;;;;;;;9.29;66.82;97060.91;5080055;28;20437;-67
2021/11/15 05:04:04;;;;;;;18.27;10.27;;;;;;;9.48;66.30;97059.97;5067796;28;20548;-67
2021/11/15 05:06:30;;;;;;;21.40;11.53;;;;;;;9.48;66.63;97054.72;5065969;28;20574;-67
2021/11/15 05:08:56;;;;;;;16.23;10.83;;;;;;;9.31;67.29;97058.97;5071707;28;20457;-67
2021/11/15 05:11:21;;;;;;;20.60;11.83;;;;;;;9.32;67.07;97052.78;5071201;28;20193;-68
2021/11/15 05:13:47;;;;;;;19.73;12.17;;;;;;;9.22;67.30;97052.84;5079950;28;20202;-67
2021/11/15 05:16:12;;;;;;;20.57;12.03;;;;;;;8.98;68.57;97051.59;5071413;28;20189;-67
2021/11/15 05:18:38;;;;;;;20.80;12.33;;;;;;;9.09;68.43;97052.38;5071407;28;20178;-67
2021/11/15 05:21:03;;;;;;;17.60;11.13;;;;;;;9.47;66.70;97058.31;5080000;28;20637;-68
2021/11/15 05:23:29;;;;;;;18.10;11.40;;;;;;;9.32;67.52;97058.00;5086189;28;20206;-67
2021/11/15 05:25:56;;;;;;;19.90;12.20;;;;;;;9.21;67.70;97056.41;5071482;28;20225;-67
2021/11/15 05:28:22;;;;;;;23.90;12.40;;;;;;;9.52;67.31;97053.47;5070709;28;20183;-68
2021/11/15 05:30:48;;;;;;;20.50;12.13;;;;;;;9.33;67.36;97057.84;5069577;28;20428;-66
2021/11/15 05:33:13;;;;;;;19.93;12.30;;;;;;;9.06;68.05;97051.72;5057076;28;20194;-67
2021/11/15 05:35:39;;;;;;;20.43;11.37;;;;;;;9.37;67.48;97063.63;5076944;28;20186;-67
2021/11/15 05:38:05;;;;;;;18.80;11.30;;;;;;;9.37;67.28;97061.81;5072166;28;20197;-67
2021/11/15 05:40:31;;;;;;;23.03;13.00;;;;;;;9.29;68.62;97060.91;5079634;28;20665;-67
2021/11/15 05:42:56;;;;;;;24.10;12.77;;;;;;;9.09;68.23;97054.97;5071302;28;20472;-66
2021/11/15 05:45:24;;;;;;;21.57;12.50;;;;;;;9.05;68.02;97051.84;5075657;28;20205;-67
2021/11/15 05:47:50;;;;;;;21.00;11.87;;;;;;;9.11;67.98;97051.28;5074625;28;20186;-67
2021/11/15 05:50:16;;;;;;;21.47;12.63;;;;;;;8.99;68.26;97058.47;5083075;28;20431;-67
2021/11/15 05:52:43;;;;;;;20.67;13.00;;;;;;;8.90;69.22;97062.78;5085510;28;20198;-67
2021/11/15 05:55:12;;;;;;;19.63;12.50;;;;;;;9.05;69.02;97063.13;5072876;28;20451;-67
2021/11/15 05:57:38;;;;;;;23.43;12.70;;;;;;;8.63;69.11;97068.81;5064065;28;20951;-68
2021/11/15 06:00:09;;;;;;;21.27;11.70;;;;;;;8.98;68.35;97077.75;5071417;28;20425;-67
2021/11/15 06:02:34;;;;;;;21.17;12.13;;;;;;;9.06;68.06;97069.16;5072171;28;20206;-66
2021/11/15 06:05:00;;;;;;;17.97;11.90;;;;;;;8.97;68.47;97072.66;5074964;28;20936;-67
2021/11/15 06:07:26;;;;;;;22.07;11.50;;;;;;;9.04;67.65;97081.56;5089069;28;20182;-67
2021/11/15 06:09:51;;;;;;;21.00;11.17;;;;;;;9.10;67.55;97085.38;5084195;28;20206;-68
2021/11/15 06:12:17;;;;;;;18.53;11.00;;;;;;;9.13;67.35;97082.47;5085511;28;20208;-67
2021/11/15 06:14:42;;;;;;;25.80;14.27;;;;;;;9.14;67.31;97079.72;5068585;28;20347;-67
2021/11/15 06:17:08;;;;;;;20.50;11.43;;;;;;;8.92;67.87;97075.72;5073490;28;20508;-68
2021/11/15 06:19:33;;;;;;;20.53;11.93;;;;;;;9.09;67.60;97081.97;5074570;28;20201;-66
2021/11/15 06:22:01;;;;;;;22.10;12.47;;;;;;;9.07;67.43;97084.69;5087347;28;20201;-66
2021/11/15 06:24:26;;;;;;;21.07;12.80;;;;;;;8.99;67.77;97091.66;5072539;28;20213;-66
2021/11/15 06:26:52;;;;;;;23.30;12.60;;;;;;;9.03;68.14;97085.13;5063151;28;20421;-65
2021/11/15 06:29:17;;;;;;;22.63;12.20;;;;;;;9.40;66.64;97093.91;5075808;28;20206;-68
2021/11/15 06:31:43;;;;;;;20.70;11.47;;;;;;;9.33;66.47;97089.25;5076720;28;20202;-66
2021/11/15 06:34:09;;;;;;;20.63;11.80;;;;;;;9.30;66.20;97092.16;5090719;28;20190;-68
2021/11/15 06:36:34;;;;;;;22.87;11.87;;;;;;;9.44;65.82;97096.06;5094280;28;20190;-68
2021/11/15 06:39:00;;;;;;;25.20;13.17;;;;;;;9.72;65.65;97089.94;5078488;28;20192;-67
2021/11/15 06:41:26;;;;;;;20.33;10.90;;;;;;;9.34;66.31;97093.50;5075274;28;20603;-68
2021/11/15 06:43:52;;;;;;;19.70;11.90;;;;;;;9.35;66.42;97095.16;5089276;28;20189;-66
2021/11/15 06:46:18;;;;;;;21.20;12.70;;;;;;;9.23;66.44;97093.72;5091079;28;20201;-66
2021/11/15 06:48:44;;;;;;;19.57;11.37;;;;;;;9.40;66.80;97096.50;5074881;28;20259;-68
2021/11/15 06:51:11;;;;;;;19.57;12.23;;;;;;;9.50;66.64;97105.13;5088846;28;20598;-66
2021/11/15 06:53:38;;;;;;;22.33;11.53;;;;;;;9.45;65.99;97091.66;5090623;28;20198;-67
2021/11/15 06:56:05;;;;;;;23.53;12.07;;;;;;;9.55;66.30;97096.81;5091738;28;20952;-65
2021/11/15 06:58:31;;;;;;;22.37;12.10;;;;;;;9.64;65.80;97098.56;5083368;28;20909;-67
2021/11/15 07:00:57;;;;;;;26.30;12.83;;;;;;;9.41;66.73;97098.16;5092051;28;20959;-66
2021/11/15 07:03:23;;;;;;;20.97;11.77;;;;;;;9.34;67.08;97098.72;5074478;28;20455;-67
2021/11/15 07:05:48;;;;;;;20.43;11.40;;;;;;;9.27;67.46;97092.47;5089534;28;20198;-67
2021/11/15 07:08:15;;;;;;;19.10;11.10;;;;;;;9.24;67.00;97097.97;5090760;28;20189;-66
2021/11/15 07:10:41;;;;;;;21.17;11.93;;;;;;;9.38;66.85;97096.66;5086873;28;20190;-66
2021/11/15 07:13:06;;;;;;;21.87;11.73;;;;;;;9.53;66.66;97091.75;5095118;28;20510;-67
2021/11/15 07:15:32;;;;;;;22.20;12.50;;;;;;;9.56;66.50;97099.31;5096289;28;20648;-67
2021/11/15 07:17:58;;;;;;;22.80;12.93;;;;;;;9.55;65.97;97100.28;5092991;28;20289;-68
2021/11/15 07:20:23;;;;;;;26.20;14.30;;;;;;;9.44;66.81;97103.91;5094936;28;20173;-67
2021/11/15 07:22:49;;;;;;;22.73;11.83;;;;;;;9.54;65.50;97093.38;5079978;28;20202;-67
2021/11/15 07:25:17;;;;;;;22.70;13.40;;;;;;;9.16;66.99;97090.03;5094042;28;20198;-66
2021/11/15 07:27:44;;;;;;;22.43;11.97;;;;;;;9.33;66.77;97096.28;5095452;28;20509;-67
2021/11/15 07:30:10;;;;;;;20.20;13.17;;;;;;;9.38;66.50;97096.66;5097805;28;20485;-67
2021/11/15 07:32:36;;;;;;;21.17;12.00;;;;;;;9.58;66.04;97099.94;5095790;28;20443;-67
2021/11/15 07:35:03;;;;;;;24.60;12.57;;;;;;;9.59;65.49;97104.22;5094051;28;20424;-67
2021/11/15 07:37:29;;;;;;;21.00;11.40;;;;;;;9.19;66.56;97102.84;5092660;28;20495;-67
2021/11/15 07:39:54;;;;;;;21.60;12.90;;;;;;;9.47;66.09;97108.84;5094143;28;20492;-66
2021/11/15 07:42:20;;;;;;;21.60;11.90;;;;;;;9.52;66.50;97108.41;5079457;28;20210;-66
2021/11/15 07:44:46;;;;;;;25.30;13.07;;;;;;;9.12;66.80;97109.59;5072751;28;20552;-67
2021/11/15 07:47:14;;;;;;;24.27;13.10;;;;;;;9.68;65.34;97121.66;5069598;28;20186;-65
2021/11/15 07:49:40;;;;;;;20.70;11.77;;;;;;;9.45;66.20;97115.22;5075105;28;20784;-65
2021/11/15 07:52:06;;;;;;;22.43;12.17;;;;;;;9.57;66.08;97123.66;5073066;28;20567;-67
2021/11/15 07:54:32;;;;;;;22.37;13.07;;;;;;;9.28;66.47;97122.03;5072598;28;20174;-66
2021/11/15 07:56:57;;;;;;;25.27;13.20;;;;;;;9.28;66.04;97124.66;5071533;28;20413;-68
2021/11/15 07:59:23;;;;;;;20.60;12.63;;;;;;;9.49;65.50;97127.00;5067929;28;20708;-66
2021/11/15 08:01:49;;;;;;;22.73;12.57;;;;;;;9.12;66.78;97126.13;5080682;28;20298;-65
2021/11/15 08:04:16;;;;;;;22.73;12.80;;;;;;;9.03;67.42;97127.81;5072924;28;20190;-65
2021/11/15 08:06:41;;;;;;;19.77;12.73;;;;;;;9.31;66.23;97140.06;5056969;28;20427;-67
2021/11/15 08:09:07;;;;;;;22.50;12.60;;;;;;;9.44;65.81;97124.03;5091183;28;20460;-71
2021/11/15 08:11:35;;;;;;;19.83;12.50;;;;;;;9.51;66.05;97138.16;5080439;28;20327;-70
2021/11/15 08:14:00;;;;;;;26.83;12.00;;;;;;;9.60;65.38;97131.22;5091815;28;20428;-70
2021/11/15 08:16:26;;;;;;;22.67;12.03;;;;;;;9.40;65.89;97133.13;5091913;28;20439;-66
2021/11/15 08:18:52;;;;;;;26.47;13.57;;;;;;;9.20;66.19;97127.97;5092318;28;20182;-66
2021/11/15 08:21:21;;;;;;;20.03;12.27;;;;;;;9.53;65.88;97128.38;5089912;28;20274;-70
2021/11/15 08:23:48;;;;;;;21.20;12.97;;;;;;;9.20;66.77;97126.22;5077089;28;20262;-69
2021/11/15 08:26:13;;;;;;;24.83;14.80;;;;;;;9.48;65.75;97125.34;5076374;28;20474;-68
2021/11/15 08:28:39;;;;;;;24.43;12.50;;;;;;;9.79;64.65;97127.66;5093218;28;20764;-71
2021/11/15 08:31:06;;;;;;;23.60;13.03;;;;;;;9.74;64.40;97122.88;5092919;28;20260;-66
2021/11/15 08:36:54;;;;;;;21.43;12.13;;;;;;;9.53;64.96;97126.56;5086839;28;20439;-67
2021/11/15 08:39:21;;;;;;;17.00;11.20;;;;;;;9.46;65.78;97127.28;5092184;28;20442;-68
2021/11/15 08:41:50;;;;;;;19.40;12.00;;;;;;;9.43;65.92;97127.63;5092657;28;20716;-68
2021/11/15 08:44:17;;;;;;;20.60;11.40;;;;;;;9.38;65.60;97128.88;5084233;28;20471;-67
2021/11/15 08:46:45;;;;;;;19.93;12.37;;;;;;;9.66;65.01;97130.63;5100986;28;20424;-68
2021/11/15 08:49:14;;;;;;;23.47;12.27;;;;;;;9.57;65.54;97128.88;5096768;28;20463;-69
2021/11/15 08:51:40;;;;;;;22.17;12.90;;;;;;;9.69;65.21;97138.19;5097024;28;20859;-71
2021/11/15 08:54:08;;;;;;;21.40;12.33;;;;;;;9.64;66.00;97125.53;5094463;28;20428;-66
2021/11/15 08:56:36;;;;;;;20.47;12.33;;;;;;;9.60;65.71;97133.84;5093832;28;21036;-67
2021/11/15 08:59:01;;;;;;;21.37;12.10;;;;;;;9.73;64.87;97133.47;5091803;28;20997;-67
2021/11/15 09:01:27;;;;;;;19.80;13.07;;;;;;;9.78;65.02;97137.28;5087385;28;20412;-67
2021/11/15 09:03:53;;;;;;;24.30;12.53;;;;;;;9.88;65.12;97139.03;5089812;28;20179;-67
2021/11/15 09:06:20;;;;;;;23.43;12.70;;;;;;;10.03;65.75;97140.13;5092979;28;20201;-67
2021/11/15 09:08:46;;;;;;;21.00;12.40;;;;;;;9.90;65.29;97143.13;5092016;28;20426;-66
2021/11/15 09:11:13;;;;;;;23.53;13.13;;;;;;;10.06;64.52;97139.81;5077227;28;20513;-69
2021/11/15 09:13:41;;;;;;;22.50;13.00;;;;;;;10.05;64.32;97137.38;5085813;28;20523;-66
2021/11/15 09:16:07;;;;;;;20.77;12.07;;;;;;;10.05;65.28;97140.78;5093068;28;20407;-67
2021/11/15 09:18:34;;;;;;;20.77;12.97;;;;;;;10.28;64.19;97142.94;5092180;28;20820;-66
2021/11/15 09:21:01;;;;;;;22.50;12.60;;;;;;;9.94;64.53;97141.88;5091310;28;20798;-65
2021/11/15 09:23:26;;;;;;;22.80;13.00;;;;;;;10.15;64.63;97148.56;5085460;28;20446;-68
2021/11/15 09:25:52;;;;;;;21.93;12.77;;;;;;;10.09;64.22;97144.78;5083779;28;20488;-69
2021/11/15 09:28:18;;;;;;;23.00;13.20;;;;;;;10.18;64.24;97148.28;5091934;28;20173;-69
2021/11/15 09:30:45;;;;;;;23.33;13.80;;;;;;;10.10;64.25;97140.34;5091404;28;20722;-69
2021/11/15 09:33:11;;;;;;;22.20;14.23;;;;;;;10.01;64.58;97136.00;5090428;28;20648;-67
2021/11/15 09:35:38;;;;;;;23.53;15.33;;;;;;;9.95;64.58;97129.59;5091561;28;20461;-67
2021/11/15 09:38:04;;;;;;;22.73;15.43;;;;;;;10.12;64.32;97133.16;5091678;28;20448;-67
2021/11/15 09:40:29;;;;;;;28.07;15.83;;;;;;;9.92;65.33;97128.09;5088700;28;20416;-68
2021/11/15 09:42:57;;;;;;;26.70;17.87;;;;;;;9.89;65.15;97135.44;5085851;28;20201;-67
2021/11/15 09:45:26;;;;;;;26.50;15.33;;;;;;;10.28;64.16;97125.44;5079026;28;20194;-69
2021/11/15 09:47:55;;;;;;;24.90;17.13;;;;;;;10.38;64.02;97127.16;5055973;28;20424;-68
2021/11/15 09:50:21;;;;;;;28.77;17.50;;;;;;;10.21;64.00;97126.19;5056616;28;20490;-65
2021/11/15 09:52:47;;;;;;;39.67;24.70;;;;;;;10.19;63.88;97123.75;5092818;28;20440;-67
2021/11/15 09:55:13;;;;;;;28.90;17.57;;;;;;;10.08;64.21;97131.84;5091360;28;20182;-67
2021/11/15 09:57:41;;;;;;;32.60;17.07;;;;;;;9.91;64.87;97130.84;5091623;28;20480;-67
2021/11/15 10:00:10;;;;;;;31.37;17.50;;;;;;;10.02;64.93;97130.63;5083146;28;20186;-67
2021/11/15 10:02:37;;;;;;;27.50;16.83;;;;;;;10.19;64.15;97126.34;5091691;28;20471;-68
2021/11/15 10:05:07;;;;;;;30.13;17.93;;;;;;;10.24;64.03;97131.13;5088347;28;20451;-69
2021/11/15 10:07:48;;;;;;;32.87;18.27;;;;;;;10.17;64.45;97132.69;5091559;28;20443;-68
2021/11/15 10:10:38;;;;;;;29.80;16.70;;;;;;;10.38;63.58;97128.00;5090390;28;20887;-69
2021/11/15 10:13:07;;;;;;;28.10;17.30;;;;;;;10.30;64.04;97125.28;5088528;28;20448;-68
2021/11/15 10:15:46;;;;;;;25.27;17.10;;;;;;;10.49;64.14;97120.88;5083667;28;20416;-68
2021/11/15 10:18:13;;;;;;;28.53;18.73;;;;;;;10.22;64.58;97123.41;5091043;28;20933;-66
2021/11/15 10:20:52;;;;;;;32.00;18.23;;;;;;;10.11;64.72;97116.63;5091168;28;20997;-67
2021/11/15 10:23:39;;;;;;;35.20;18.30;;;;;;;10.04;65.06;97125.25;5079800;28;20800;-68
2021/11/15 10:26:20;;;;;;;28.23;17.63;;;;;;;10.19;64.15;97122.91;5091531;28;20925;-67
2021/11/15 10:28:45;;;;;;;27.43;16.60;;;;;;;10.16;64.40;97126.66;5082559;28;20514;-70
2021/11/15 10:31:30;;;;;;;34.33;19.30;;;;;;;10.23;64.39;97119.81;5088223;28;20511;-68
2021/11/15 10:33:56;;;;;;;31.90;18.00;;;;;;;10.35;63.57;97115.19;5090591;28;20193;-66
2021/11/15 10:36:44;;;;;;;24.00;16.30;;;;;;;10.30;63.66;97106.94;5091266;28;20442;-67
2021/11/15 10:39:10;;;;;;;30.77;18.60;;;;;;;10.18;64.50;97116.84;5091000;28;20447;-67
2021/11/15 10:41:35;;;;;;;28.07;18.23;;;;;;;10.48;63.38;97111.38;5082034;28;20534;-65
2021/11/15 10:44:01;;;;;;;29.57;17.73;;;;;;;10.33;63.84;97100.59;5091509;28;20189;-66
2021/11/15 10:46:31;;;;;;;29.30;17.43;;;;;;;10.08;64.29;97103.03;5091129;28;20208;-67
2021/11/15 10:48:58;;;;;;;31.33;17.80;;;;;;;10.08;64.20;97100.41;5096061;28;20547;-66
2021/11/15 10:51:51;;;;;;;27.13;16.90;;;;;;;9.95;64.20;97112.09;5100002;28;21041;-65
2021/11/15 10:54:50;;;;;;;34.67;16.30;;;;;;;10.10;63.80;97108.91;5095940;28;20879;-69
2021/11/15 10:57:28;;;;;;;30.23;16.87;;;;;;;10.13;63.63;97100.75;5095577;28;20422;-69
2021/11/15 11:00:06;;;;;;;27.47;16.90;;;;;;;10.30;64.27;97104.31;5095954;28;20411;-68
2021/11/15 11:02:34;;;;;;;29.73;16.70;;;;;;;10.29;63.45;97111.38;5094477;28;20445;-67
2021/11/15 11:05:15;;;;;;;32.03;17.20;;;;;;;10.04;64.18;97099.88;5093916;28;20516;-68
2021/11/15 11:07:43;;;;;;;27.60;16.47;;;;;;;10.23;63.70;97098.88;5094431;28;20412;-69
2021/11/15 11:10:10;;;;;;;27.37;16.80;;;;;;;10.38;63.39;97103.59;5095025;28;20827;-67
2021/11/15 11:12:43;;;;;;;27.40;15.60;;;;;;;10.18;63.26;97095.06;5088029;28;20440;-68
2021/11/15 11:15:57;;;;;;;34.50;17.70;;;;;;;10.24;63.43;97095.28;5096704;28;20416;-68
2021/11/15 11:26:33;;;;;;;25.10;15.87;;;;;;;10.16;63.92;97082.13;5085471;28;21040;-68
2021/11/15 11:29:02;;;;;;;26.20;15.40;;;;;;;10.20;63.62;97083.47;5090995;28;20508;-68
2021/11/15 11:31:30;;;;;;;31.97;19.17;;;;;;;10.45;62.54;97086.31;5092046;28;20473;-66
2021/11/15 11:33:56;;;;;;;29.27;16.67;;;;;;;9.99;63.80;97086.44;5025407;28;20416;-69
2021/11/15 11:36:22;;;;;;;29.77;16.27;;;;;;;10.09;63.67;97091.56;5050582;28;20485;-65